Terminal Aerodrome Forecast
Issued by NWS

Home | Current Version | Previous Version | Graphics & Text | Print | Product List | Glossary On
Versions: 1 2 3 4 5 6 7 8 9 10 11 12 13 14 15 16
000
FTUS43 KTOP 252300
TAFFOE
TAF
KFOE 252333Z 2600/2624 18012KT P6SM BKN200 WS020/20048KT
     FM260600 19010KT P6SM BKN200
     FM261600 34006KT P6SM BKN016
     FM261900 03006KT P6SM OVC014=

USA.gov is the U.S. government's official web portal to all federal, state and local government web resources and services.